Terminal Aerodrome Forecast
Issued by NWS

Home | Current Version | Previous Version | Text Only | Print | Product List | Glossary On
Versions: 1 2 3 4 5 6 7 8 9 10 11 12 13
113
FTUS46 KSEW 141140
TAFPAE
TAF
KPAE 141140Z 1412/1512 17010KT 2SM BR OVC003
     FM141500 17010KT 4SM BR SCT003 OVC006
     FM141800 17010KT 5SM -RA SCT006 BKN011 OVC020
     FM150700 VRB03KT P6SM -RA SCT008 BKN015 OVC025=

USA.gov is the U.S. government's official web portal to all federal, state and local government web resources and services.